Time;durP1;ratioP1;P1;durP2;ratioP2;P2;SDS_P1;SDS_P2;PMS_P1;PMS_P2;Temp;Humidity;BMP_temperature;BMP_pressure;BME280_temperature;BME280_humidity;BME280_pressure;Samples;Min_cycle;Max_cycle;Signal;HPM_P1;HPM_P2
2022/10/06 00:00:32;;;;;;;5.53;1.52;;;13.50;99.90;;;;;;4965239;28;20046;-59
2022/10/06 00:02:58;;;;;;;6.43;1.05;;;13.40;99.90;;;;;;4966030;28;20039;-58
2022/10/06 00:05:24;;;;;;;6.20;1.50;;;13.40;99.90;;;;;;4949941;28;20545;-58
2022/10/06 00:07:50;;;;;;;6.80;1.30;;;13.60;99.90;;;;;;4973350;28;20453;-58
2022/10/06 00:10:15;;;;;;;7.72;1.52;;;13.50;99.90;;;;;;4964733;28;20039;-59
2022/10/06 00:12:44;;;;;;;8.82;1.65;;;13.40;99.90;;;;;;4965630;28;20074;-58
2022/10/06 00:15:11;;;;;;;8.23;1.17;;;13.40;99.90;;;;;;4964331;28;20209;-59
2022/10/06 00:17:37;;;;;;;6.70;1.10;;;13.40;99.90;;;;;;4964513;28;20401;-59
2022/10/06 00:20:04;;;;;;;5.07;1.40;;;13.30;99.90;;;;;;4964599;28;20152;-59
2022/10/06 00:22:34;;;;;;;8.63;1.73;;;13.30;99.90;;;;;;4965037;28;20071;-58
2022/10/06 00:25:00;;;;;;;8.38;1.40;;;13.40;99.90;;;;;;4965260;28;20043;-59
2022/10/06 00:27:35;;;;;;;6.35;1.38;;;13.40;99.90;;;;;;4965625;28;20035;-59
2022/10/06 00:30:07;;;;;;;4.22;0.95;;;13.30;99.90;;;;;;4964806;28;20046;-58
2022/10/06 00:32:33;;;;;;;5.25;1.10;;;13.20;99.90;;;;;;4964798;28;20066;-59
2022/10/06 00:34:59;;;;;;;6.53;1.35;;;13.10;99.90;;;;;;4965651;28;20517;-58
2022/10/06 00:37:27;;;;;;;5.22;1.10;;;13.10;99.90;;;;;;4964243;28;20490;-59
2022/10/06 00:39:52;;;;;;;8.30;1.80;;;13.00;99.90;;;;;;4964240;28;20053;-59
2022/10/06 00:42:30;;;;;;;6.90;1.42;;;13.00;99.90;;;;;;4964979;28;20042;-59
2022/10/06 00:45:00;;;;;;;6.28;1.30;;;13.10;99.90;;;;;;4965333;28;20043;-57
2022/10/06 00:47:30;;;;;;;5.32;1.30;;;13.10;99.90;;;;;;4964746;28;20441;-59
2022/10/06 00:49:57;;;;;;;8.07;1.50;;;13.10;99.90;;;;;;4950742;28;20090;-59
2022/10/06 00:52:27;;;;;;;7.75;1.50;;;13.10;99.90;;;;;;4967710;28;20512;-58
2022/10/06 00:54:52;;;;;;;6.43;1.30;;;13.10;99.90;;;;;;4968174;28;20416;-59
2022/10/06 00:57:21;;;;;;;8.85;1.52;;;13.10;99.90;;;;;;4968222;28;20045;-58
2022/10/06 00:59:47;;;;;;;5.60;1.30;;;13.00;99.90;;;;;;4968552;28;20050;-58
2022/10/06 01:02:21;;;;;;;9.18;1.30;;;13.00;99.90;;;;;;4967947;28;20050;-59
2022/10/06 01:04:51;;;;;;;6.47;1.40;;;13.00;99.90;;;;;;4951995;28;20613;-59
2022/10/06 01:07:20;;;;;;;7.47;1.55;;;12.90;99.90;;;;;;4976943;28;20050;-58
2022/10/06 01:09:46;;;;;;;7.78;1.77;;;12.90;99.90;;;;;;4968062;28;20425;-59
2022/10/06 01:12:12;;;;;;;7.30;1.35;;;12.80;99.90;;;;;;4950876;28;20051;-59
2022/10/06 01:14:40;;;;;;;7.75;1.42;;;12.60;99.90;;;;;;4968148;28;20077;-58
2022/10/06 01:17:13;;;;;;;5.80;1.35;;;12.60;99.90;;;;;;4968259;28;20051;-59
2022/10/06 01:19:58;;;;;;;7.32;1.15;;;12.80;99.90;;;;;;4934784;28;20057;-59
2022/10/06 01:22:31;;;;;;;;;;;12.60;99.90;;;;;;4967259;28;20744;-58
2022/10/06 01:24:57;;;;;;;8.00;1.63;;;12.50;99.90;;;;;;4968818;28;19922;-59
2022/10/06 01:27:24;;;;;;;10.40;1.55;;;12.60;99.90;;;;;;4967918;28;20478;-59
2022/10/06 01:29:53;;;;;;;6.25;1.27;;;12.50;99.90;;;;;;4968199;28;20051;-58
2022/10/06 01:32:19;;;;;;;8.55;1.40;;;12.60;99.90;;;;;;4950004;28;20050;-59
2022/10/06 01:34:45;;;;;;;7.97;1.50;;;12.60;99.90;;;;;;4967912;28;20051;-58
2022/10/06 01:37:11;;;;;;;7.38;1.55;;;12.70;99.90;;;;;;4966900;28;20086;-59
2022/10/06 01:39:36;;;;;;;6.50;1.45;;;12.50;99.90;;;;;;4967093;28;20039;-58
2022/10/06 01:42:02;;;;;;;8.52;1.48;;;12.70;99.90;;;;;;4950300;28;20607;-59
2022/10/06 01:44:27;;;;;;;7.63;1.58;;;12.70;99.90;;;;;;4968448;28;20511;-59
2022/10/06 01:46:53;;;;;;;8.70;1.83;;;12.60;99.90;;;;;;4967705;28;20493;-59
2022/10/06 01:49:19;;;;;;;9.30;1.83;;;12.50;99.90;;;;;;4966314;28;20101;-59
2022/10/06 01:51:46;;;;;;;7.35;1.65;;;12.50;99.90;;;;;;4965953;28;20060;-58
2022/10/06 01:54:12;;;;;;;6.85;1.50;;;12.50;99.90;;;;;;4967383;28;20676;-59
2022/10/06 01:56:38;;;;;;;7.20;1.38;;;12.40;99.90;;;;;;4967197;28;20587;-59
2022/10/06 01:59:03;;;;;;;8.73;1.73;;;12.50;99.90;;;;;;4966848;28;20130;-58
2022/10/06 02:01:29;;;;;;;10.77;2.17;;;12.50;99.90;;;;;;4967773;28;20126;-59
2022/10/06 02:03:54;;;;;;;10.10;1.90;;;12.50;99.90;;;;;;4967190;28;20042;-59
2022/10/06 02:06:20;;;;;;;10.48;2.13;;;12.40;99.90;;;;;;4975010;28;20066;-58
2022/10/06 02:08:46;;;;;;;7.93;1.55;;;12.40;99.90;;;;;;4968270;28;20043;-59
2022/10/06 02:11:12;;;;;;;8.90;1.90;;;12.40;99.90;;;;;;4966121;28;20065;-59
2022/10/06 02:13:38;;;;;;;8.80;1.42;;;12.40;99.90;;;;;;4964806;28;20805;-59
2022/10/06 02:16:05;;;;;;;11.05;2.00;;;12.30;99.90;;;;;;4965529;28;20058;-59
2022/10/06 02:18:34;;;;;;;9.60;2.10;;;12.30;99.90;;;;;;5076080;23;20461;-59
2022/10/06 02:21:01;;;;;;;12.63;1.95;;;12.40;99.90;;;;;;5029250;28;20153;-60
2022/10/06 02:23:28;;;;;;;9.07;1.88;;;12.30;99.90;;;;;;5024483;28;20041;-59
2022/10/06 02:26:02;;;;;;;10.60;1.88;;;12.30;99.90;;;;;;5042896;28;20403;-59
2022/10/06 02:28:29;;;;;;;15.45;2.70;;;12.30;99.90;;;;;;5045107;28;20041;-59
2022/10/06 02:31:07;;;;;;;8.85;2.30;;;12.30;99.90;;;;;;5044970;28;20037;-59
2022/10/06 02:33:33;;;;;;;9.68;1.90;;;12.30;99.90;;;;;;5045129;28;20126;-59
2022/10/06 02:35:59;;;;;;;10.00;2.17;;;12.20;99.90;;;;;;5044545;28;20080;-59
2022/10/06 02:38:25;;;;;;;11.68;1.88;;;12.30;99.90;;;;;;5044396;28;20142;-58
2022/10/06 02:40:52;;;;;;;16.25;2.00;;;12.30;99.90;;;;;;5045511;28;20102;-58
2022/10/06 02:43:21;;;;;;;11.90;2.83;;;12.20;99.90;;;;;;5044847;28;20400;-58
2022/10/06 02:46:00;;;;;;;12.07;2.13;;;12.20;99.90;;;;;;5043927;28;20660;-58
2022/10/06 02:48:27;;;;;;;7.85;2.00;;;12.20;99.90;;;;;;5026735;28;20063;-59
2022/10/06 02:51:00;;;;;;;17.17;2.42;;;12.10;99.90;;;;;;5044958;28;20473;-59
2022/10/06 02:53:27;;;;;;;10.65;2.08;;;12.20;99.90;;;;;;5044222;28;20060;-59
2022/10/06 02:56:02;;;;;;;10.55;2.05;;;12.20;99.90;;;;;;5044093;28;20057;-58
2022/10/06 02:58:28;;;;;;;10.93;2.38;;;12.10;99.90;;;;;;5044526;28;20041;-58
2022/10/06 03:01:01;;;;;;;9.27;1.73;;;12.10;99.90;;;;;;5043957;28;20364;-59
2022/10/06 03:03:27;;;;;;;10.15;1.88;;;12.10;99.90;;;;;;5044746;28;20740;-59
2022/10/06 03:06:04;;;;;;;8.07;1.75;;;12.10;99.90;;;;;;5037762;28;20411;-59
2022/10/06 03:08:31;;;;;;;9.02;1.75;;;12.10;99.90;;;;;;5028331;28;20449;-58
2022/10/06 03:11:05;;;;;;;7.10;1.60;;;12.10;99.90;;;;;;5024332;28;20064;-59
2022/10/06 03:13:31;;;;;;;10.93;2.10;;;12.10;99.90;;;;;;5024122;28;20106;-60
2022/10/06 03:15:57;;;;;;;6.95;1.50;;;12.10;99.90;;;;;;5025055;28;20045;-59
2022/10/06 03:18:23;;;;;;;11.95;2.40;;;12.10;99.90;;;;;;5023740;28;20061;-59
2022/10/06 03:20:49;;;;;;;9.40;2.20;;;11.90;99.90;;;;;;5024584;28;20053;-60
2022/10/06 03:23:15;;;;;;;10.90;2.28;;;11.90;99.90;;;;;;5006076;28;20056;-59
2022/10/06 03:25:41;;;;;;;11.73;2.33;;;11.80;99.90;;;;;;5024487;28;20049;-59
2022/10/06 03:28:06;;;;;;;11.57;2.28;;;11.80;99.90;;;;;;5024885;28;20460;-59
2022/10/06 03:30:32;;;;;;;11.80;2.13;;;11.70;99.90;;;;;;5024399;28;20081;-59
2022/10/06 03:33:00;;;;;;;11.85;2.15;;;11.80;99.90;;;;;;5024650;28;20447;-59
2022/10/06 03:35:26;;;;;;;12.05;2.70;;;11.70;99.90;;;;;;5024233;28;20084;-59
2022/10/06 03:37:52;;;;;;;11.23;2.17;;;11.70;99.90;;;;;;5022600;28;20084;-59
2022/10/06 03:40:18;;;;;;;8.05;1.75;;;11.60;99.90;;;;;;5023718;28;20508;-59
2022/10/06 03:42:43;;;;;;;9.60;2.00;;;11.60;99.90;;;;;;5024033;28;20124;-59
2022/10/06 03:45:09;;;;;;;11.45;2.30;;;11.50;99.90;;;;;;5023835;28;20434;-59
2022/10/06 03:47:35;;;;;;;9.57;1.50;;;11.50;99.90;;;;;;5023447;28;20557;-60
2022/10/06 03:50:01;;;;;;;10.20;2.10;;;11.50;99.90;;;;;;5024496;28;20045;-60
2022/10/06 03:52:26;;;;;;;5.47;1.40;;;11.50;99.90;;;;;;5023648;28;20049;-59
2022/10/06 03:54:52;;;;;;;10.15;2.05;;;11.50;99.90;;;;;;5005973;28;20396;-60
2022/10/06 03:57:18;;;;;;;10.02;1.90;;;11.50;99.90;;;;;;5024312;28;20873;-59
2022/10/06 03:59:43;;;;;;;6.18;1.83;;;11.50;99.90;;;;;;5024486;28;20042;-60
2022/10/06 04:02:10;;;;;;;13.60;2.00;;;11.40;99.90;;;;;;5023743;28;20090;-59
2022/10/06 04:04:36;;;;;;;8.85;1.45;;;11.40;99.90;;;;;;5024138;28;20121;-59
2022/10/06 04:07:02;;;;;;;10.43;2.00;;;11.40;99.90;;;;;;5016353;28;20041;-59
2022/10/06 04:09:28;;;;;;;7.22;1.70;;;11.30;99.90;;;;;;5024295;28;20398;-58
2022/10/06 04:11:54;;;;;;;7.50;1.90;;;11.30;99.90;;;;;;5023330;28;20045;-59
2022/10/06 04:14:20;;;;;;;11.57;2.30;;;11.30;99.90;;;;;;5023549;28;20075;-60
2022/10/06 04:16:49;;;;;;;9.43;1.90;;;11.30;99.90;;;;;;5023722;28;20094;-60
2022/10/06 04:19:16;;;;;;;10.70;2.00;;;11.30;99.90;;;;;;5023060;28;20125;-60
2022/10/06 04:21:44;;;;;;;11.15;1.60;;;11.30;99.90;;;;;;5022791;28;20046;-59
2022/10/06 04:24:10;;;;;;;15.18;1.88;;;11.30;99.90;;;;;;5025389;28;20120;-59
2022/10/06 04:26:39;;;;;;;11.32;1.90;;;11.30;99.90;;;;;;5028270;28;20080;-58
2022/10/06 04:29:05;;;;;;;10.50;1.67;;;11.30;99.90;;;;;;5027004;28;20085;-59
2022/10/06 04:31:35;;;;;;;9.10;1.55;;;11.30;99.90;;;;;;5027669;28;20049;-60
2022/10/06 04:34:02;;;;;;;8.32;1.98;;;11.20;99.90;;;;;;5027760;28;20045;-59
2022/10/06 04:36:34;;;;;;;9.63;1.67;;;11.20;99.90;;;;;;5026741;28;20052;-58
2022/10/06 04:39:03;;;;;;;12.25;2.60;;;11.20;99.90;;;;;;5027805;28;20049;-59
2022/10/06 04:41:35;;;;;;;9.75;2.22;;;11.10;99.90;;;;;;5027188;28;20038;-59
2022/10/06 04:44:01;;;;;;;7.60;1.88;;;11.10;99.90;;;;;;5027107;28;20484;-59
2022/10/06 04:46:28;;;;;;;7.03;1.63;;;11.10;99.90;;;;;;5027234;28;20041;-58
2022/10/06 04:48:54;;;;;;;7.43;1.70;;;11.00;99.90;;;;;;5008906;28;20081;-59
2022/10/06 04:51:23;;;;;;;8.35;1.60;;;11.00;99.90;;;;;;5025813;28;20095;-59
2022/10/06 04:53:49;;;;;;;10.82;1.90;;;11.00;99.90;;;;;;5009727;28;20057;-59
2022/10/06 04:56:19;;;;;;;11.00;1.88;;;10.90;99.90;;;;;;5026695;28;20052;-59
2022/10/06 04:58:50;;;;;;;7.93;1.60;;;10.90;99.90;;;;;;5026677;28;20060;-59
2022/10/06 05:01:15;;;;;;;10.85;1.80;;;10.80;99.90;;;;;;5026931;28;20388;-59
2022/10/06 05:03:42;;;;;;;11.48;2.00;;;10.80;99.90;;;;;;5027089;28;20064;-59
2022/10/06 05:06:11;;;;;;;9.95;1.95;;;10.80;99.90;;;;;;5033610;28;20091;-58
2022/10/06 05:08:37;;;;;;;9.48;1.92;;;10.80;99.90;;;;;;5012434;28;20053;-59
2022/10/06 05:11:06;;;;;;;6.78;1.70;;;10.70;99.90;;;;;;5026572;28;20041;-58
2022/10/06 05:13:32;;;;;;;8.85;1.63;;;10.80;99.90;;;;;;5026732;28;20592;-59
2022/10/06 05:15:59;;;;;;;5.40;1.40;;;10.70;99.90;;;;;;5026814;28;20030;-59
2022/10/06 05:18:26;;;;;;;10.40;2.03;;;10.70;99.90;;;;;;5026166;28;20519;-59
2022/10/06 05:21:19;;;;;;;10.10;1.92;;;10.70;99.90;;;;;;5026038;28;20045;-58
2022/10/06 05:23:45;;;;;;;8.57;2.13;;;10.60;99.90;;;;;;5025273;28;20049;-59
2022/10/06 05:26:20;;;;;;;7.93;1.50;;;10.60;99.90;;;;;;5026491;28;20500;-59
2022/10/06 05:28:46;;;;;;;10.38;2.05;;;10.60;99.90;;;;;;5026225;28;20052;-59
2022/10/06 05:31:13;;;;;;;9.90;1.65;;;10.60;99.90;;;;;;5026409;28;20544;-59
2022/10/06 05:33:40;;;;;;;11.82;2.20;;;10.70;99.90;;;;;;5026664;28;20045;-59
2022/10/06 05:36:10;;;;;;;11.68;2.28;;;10.60;99.90;;;;;;5024131;28;20060;-60
2022/10/06 05:38:36;;;;;;;7.25;1.85;;;10.60;99.90;;;;;;5026075;28;20046;-59
2022/10/06 05:41:05;;;;;;;9.02;1.73;;;10.60;99.90;;;;;;5026504;28;20044;-57
2022/10/06 05:43:32;;;;;;;8.43;1.73;;;10.50;99.90;;;;;;5025617;28;20042;-60
2022/10/06 05:46:00;;;;;;;11.40;1.63;;;10.60;99.90;;;;;;5026451;28;20037;-59
2022/10/06 05:48:27;;;;;;;10.40;2.05;;;10.60;99.90;;;;;;5026066;28;20059;-58
2022/10/06 05:51:07;;;;;;;10.50;2.15;;;10.60;99.90;;;;;;5025542;28;20049;-59
2022/10/06 05:53:35;;;;;;;9.65;1.73;;;10.60;99.90;;;;;;5026131;28;20045;-60
2022/10/06 05:56:03;;;;;;;12.73;2.60;;;10.60;99.90;;;;;;5026255;28;20504;-60
2022/10/06 05:58:30;;;;;;;6.82;1.67;;;10.60;99.90;;;;;;5026375;28;20053;-59
2022/10/06 06:01:04;;;;;;;11.05;1.75;;;10.70;99.90;;;;;;5026819;28;20083;-59
2022/10/06 06:03:30;;;;;;;8.30;1.63;;;10.70;99.90;;;;;;5026219;28;20470;-59
2022/10/06 06:05:55;;;;;;;9.73;2.03;;;10.60;99.90;;;;;;5030738;28;20045;-60
2022/10/06 06:08:21;;;;;;;11.25;2.72;;;10.70;99.90;;;;;;5030818;28;20038;-59
2022/10/06 06:10:47;;;;;;;11.75;1.75;;;10.70;99.90;;;;;;5025946;28;20128;-59
2022/10/06 06:13:19;;;;;;;13.20;1.88;;;10.70;99.90;;;;;;5025479;28;20084;-58
2022/10/06 06:16:00;;;;;;;11.95;2.05;;;10.70;99.90;;;;;;5024986;28;20037;-59
2022/10/06 06:18:30;;;;;;;11.05;1.83;;;10.70;99.90;;;;;;5024938;28;20148;-58
2022/10/06 06:21:01;;;;;;;12.43;2.25;;;10.70;99.90;;;;;;5007300;28;20431;-59
2022/10/06 06:23:45;;;;;;;11.50;2.25;;;10.70;99.90;;;;;;5026355;28;20401;-59
2022/10/06 06:26:25;;;;;;;14.27;2.15;;;10.70;99.90;;;;;;5024779;28;20056;-59
2022/10/06 06:28:53;;;;;;;5.60;1.63;;;10.90;99.90;;;;;;5025334;28;20407;-57
2022/10/06 06:31:27;;;;;;;11.05;1.83;;;10.80;99.90;;;;;;5025121;28;20045;-59
2022/10/06 06:33:55;;;;;;;10.45;1.60;;;10.80;99.90;;;;;;5025551;28;20115;-59
2022/10/06 06:36:34;;;;;;;11.82;2.38;;;10.90;99.90;;;;;;5024740;28;20045;-59
2022/10/06 06:39:02;;;;;;;9.68;1.80;;;10.90;99.90;;;;;;5025367;28;20052;-59
2022/10/06 06:41:31;;;;;;;13.07;2.67;;;11.10;99.90;;;;;;5025466;28;20046;-59
2022/10/06 06:43:58;;;;;;;8.88;2.08;;;11.10;99.90;;;;;;5025062;28;20049;-59
2022/10/06 06:46:26;;;;;;;8.40;2.38;;;11.30;99.90;;;;;;5023115;28;20873;-59
2022/10/06 06:48:53;;;;;;;10.52;2.10;;;11.30;99.90;;;;;;5024761;28;20045;-59
2022/10/06 06:51:22;;;;;;;8.98;1.77;;;11.30;99.90;;;;;;5023473;28;20041;-58
2022/10/06 06:53:49;;;;;;;11.55;2.20;;;11.30;99.90;;;;;;5024795;28;20398;-60
2022/10/06 06:56:15;;;;;;;10.95;2.55;;;11.30;99.90;;;;;;5023683;28;20067;-57
2022/10/06 06:58:46;;;;;;;13.55;2.38;;;11.30;99.90;;;;;;5024804;28;20045;-58
2022/10/06 07:01:17;;;;;;;10.77;2.20;;;11.30;99.90;;;;;;5024476;28;20043;-59
2022/10/06 07:03:45;;;;;;;9.48;2.10;;;11.30;99.90;;;;;;5024513;28;20099;-59
2022/10/06 07:06:12;;;;;;;8.82;2.10;;;11.40;99.90;;;;;;5031329;28;20037;-58
2022/10/06 07:08:44;;;;;;;12.70;1.95;;;11.30;99.90;;;;;;5027485;28;20049;-57
2022/10/06 07:11:11;;;;;;;14.82;3.13;;;11.40;99.90;;;;;;5024307;28;20034;-58
2022/10/06 07:13:36;;;;;;;13.35;2.08;;;11.40;99.90;;;;;;5025119;28;20397;-58
2022/10/06 07:27:01;;;;;;;11.40;2.38;;;11.70;99.90;;;;;;5023778;28;20411;-60
2022/10/06 07:29:26;;;;;;;13.35;2.30;;;11.80;99.90;;;;;;5026187;28;20287;-59
2022/10/06 07:31:53;;;;;;;8.20;2.00;;;11.80;99.90;;;;;;5044493;28;20041;-56
2022/10/06 07:34:18;;;;;;;10.30;2.20;;;12.00;99.90;;;;;;5044171;28;20047;-56
2022/10/06 07:36:45;;;;;;;10.00;2.38;;;12.00;99.90;;;;;;5024969;28;20495;-57
2022/10/06 07:39:11;;;;;;;9.73;2.15;;;12.00;99.90;;;;;;5025535;28;20045;-57
2022/10/06 07:41:37;;;;;;;9.90;2.00;;;12.00;99.90;;;;;;5044536;28;20041;-59
2022/10/06 07:44:04;;;;;;;7.63;1.95;;;12.10;99.90;;;;;;5043516;28;20268;-56
2022/10/06 07:46:30;;;;;;;12.82;2.60;;;12.30;99.90;;;;;;5044926;28;20052;-59
2022/10/06 07:48:55;;;;;;;13.48;2.03;;;12.30;99.90;;;;;;5044664;28;20128;-58
2022/10/06 07:51:23;;;;;;;16.05;2.78;;;12.40;99.90;;;;;;5043436;28;20559;-59
2022/10/06 07:53:49;;;;;;;8.23;2.35;;;12.40;99.90;;;;;;5044269;28;20048;-58
2022/10/06 07:56:16;;;;;;;12.13;2.55;;;12.50;99.90;;;;;;5025980;28;20056;-59
2022/10/06 07:58:43;;;;;;;9.38;2.05;;;12.60;99.90;;;;;;5044269;28;20041;-59
2022/10/06 08:01:12;;;;;;;11.75;2.58;;;12.70;99.90;;;;;;5043357;28;20049;-59
2022/10/06 08:03:39;;;;;;;13.95;2.15;;;12.70;99.90;;;;;;5043785;28;20048;-59
2022/10/06 08:06:05;;;;;;;13.23;2.10;;;12.80;99.90;;;;;;5035641;28;20129;-60
2022/10/06 08:08:35;;;;;;;11.30;1.85;;;12.80;99.90;;;;;;5039181;28;20091;-61
2022/10/06 08:11:02;;;;;;;7.25;1.88;;;12.90;99.90;;;;;;5043740;28;20040;-58
2022/10/06 08:13:31;;;;;;;13.20;2.50;;;13.00;99.90;;;;;;5031538;28;20139;-59
2022/10/06 08:16:06;;;;;;;14.07;2.40;;;13.00;99.90;;;;;;5015449;28;20103;-57
2022/10/06 08:18:32;;;;;;;12.80;2.63;;;13.10;99.90;;;;;;5031379;28;20481;-57
2022/10/06 08:20:58;;;;;;;13.32;2.22;;;13.20;99.90;;;;;;5035391;28;20369;-58
2022/10/06 08:23:24;;;;;;;13.23;2.05;;;13.30;99.90;;;;;;5033751;28;20048;-59
2022/10/06 08:25:53;;;;;;;11.57;2.45;;;13.40;99.90;;;;;;5034053;28;20450;-58
2022/10/06 08:28:21;;;;;;;11.48;1.90;;;13.40;99.90;;;;;;5016849;28;20037;-59
2022/10/06 08:30:48;;;;;;;12.63;2.30;;;13.40;99.90;;;;;;5033358;28;20033;-59
2022/10/06 08:33:13;;;;;;;14.65;2.47;;;13.50;99.90;;;;;;5034081;28;20640;-59
2022/10/06 08:35:39;;;;;;;14.10;2.10;;;13.60;99.90;;;;;;5032593;28;20073;-58
2022/10/06 08:38:05;;;;;;;10.93;1.98;;;13.70;99.90;;;;;;5028543;28;20121;-59
2022/10/06 08:40:31;;;;;;;11.00;2.25;;;13.80;99.90;;;;;;5034831;28;20041;-60
2022/10/06 08:42:59;;;;;;;11.88;2.60;;;13.90;99.90;;;;;;5036189;28;20111;-59
2022/10/06 08:45:39;;;;;;;9.48;2.00;;;14.00;99.90;;;;;;5036739;28;20050;-59
2022/10/06 08:48:12;;;;;;;8.98;1.70;;;14.00;99.90;;;;;;5032489;28;20048;-59
2022/10/06 08:51:18;;;;;;;7.22;1.75;;;14.00;99.90;;;;;;5011813;28;20115;-59
2022/10/06 08:54:07;;;;;;;10.68;2.15;;;14.10;99.90;;;;;;5023716;28;20049;-58
2022/10/06 08:56:44;;;;;;;9.25;2.13;;;14.10;99.90;;;;;;5023044;28;20124;-59
2022/10/06 08:59:09;;;;;;;13.05;2.20;;;14.30;99.90;;;;;;5005783;28;20061;-60
2022/10/06 09:01:47;;;;;;;10.60;1.92;;;14.40;99.90;;;;;;5023938;28;20053;-60
2022/10/06 09:04:27;;;;;;;9.02;1.80;;;14.80;99.90;;;;;;5023301;28;20069;-59
2022/10/06 09:07:05;;;;;;;8.63;1.98;;;15.20;99.90;;;;;;5030108;28;20061;-66
2022/10/06 09:09:39;;;;;;;9.52;1.77;;;15.40;99.90;;;;;;5044010;28;20131;-66
2022/10/06 09:12:17;;;;;;;11.07;1.75;;;15.40;99.90;;;;;;5046362;28;20048;-66
2022/10/06 09:14:46;;;;;;;9.82;1.55;;;15.30;99.90;;;;;;5008939;28;20061;-66
2022/10/06 09:17:21;;;;;;;12.13;2.08;;;15.40;99.90;;;;;;5026160;28;20060;-66
2022/10/06 09:20:03;;;;;;;14.38;1.90;;;15.60;99.90;;;;;;5026464;28;20516;-66
2022/10/06 09:22:30;;;;;;;9.07;2.20;;;15.50;99.90;;;;;;5025997;28;20124;-66
2022/10/06 09:25:01;;;;;;;12.98;2.08;;;15.80;99.90;;;;;;5026946;28;20041;-66
2022/10/06 09:27:35;;;;;;;9.25;1.83;;;15.50;99.90;;;;;;5043558;28;20037;-66
2022/10/06 09:30:03;;;;;;;9.45;1.65;;;15.40;99.90;;;;;;5046607;28;20084;-66
2022/10/06 09:32:30;;;;;;;10.32;1.90;;;15.40;99.90;;;;;;5046910;28;20044;-66
2022/10/06 09:35:01;;;;;;;12.02;1.85;;;15.60;99.90;;;;;;5045862;28;20530;-65
2022/10/06 09:37:27;;;;;;;7.47;1.40;;;15.90;99.90;;;;;;5046099;28;20398;-65
2022/10/06 09:39:53;;;;;;;5.40;1.45;;;16.20;99.90;;;;;;5045986;28;20037;-66
2022/10/06 09:42:37;;;;;;;8.95;1.50;;;16.10;99.90;;;;;;5033480;28;20073;-65
2022/10/06 09:45:23;;;;;;;11.45;1.67;;;16.60;99.90;;;;;;5043211;28;20048;-66
2022/10/06 09:47:49;;;;;;;7.60;1.40;;;16.70;99.90;;;;;;5045293;28;20406;-65
2022/10/06 09:50:23;;;;;;;8.82;1.20;;;16.40;99.90;;;;;;5045559;28;20095;-66
2022/10/06 09:53:04;;;;;;;;;;;16.00;99.90;;;;;;5046431;28;20064;-68
2022/10/06 09:55:36;;;;;;;7.60;1.55;;;15.90;99.90;;;;;;5028021;28;20000;-67
2022/10/06 09:58:03;;;;;;;8.63;1.63;;;16.50;99.90;;;;;;5027887;28;20476;-64
2022/10/06 10:00:31;;;;;;;9.05;1.73;;;16.90;99.90;;;;;;5035509;28;20065;-67
2022/10/06 10:03:06;;;;;;;8.02;1.70;;;16.90;99.90;;;;;;5008373;28;20565;-66
2022/10/06 10:05:33;;;;;;;;;;;16.70;99.90;;;;;;5034787;28;20037;-58
2022/10/06 10:08:01;;;;;;;9.02;1.60;;;16.90;99.90;;;;;;5037159;28;20429;-58
2022/10/06 10:10:27;;;;;;;6.30;1.38;;;16.60;99.90;;;;;;5045653;28;20045;-57
2022/10/06 10:12:58;;;;;;;3.95;0.98;;;16.80;99.90;;;;;;5045581;28;20045;-58
2022/10/06 10:15:30;;;;;;;10.55;1.65;;;16.60;99.90;;;;;;5044675;28;20045;-59
2022/10/06 10:18:02;;;;;;;6.13;1.23;;;16.50;99.90;;;;;;5045254;28;20071;-59
2022/10/06 10:20:36;;;;;;;5.82;1.25;;;16.50;99.90;;;;;;5044697;28;20114;-58
2022/10/06 10:23:22;;;;;;;6.43;1.40;;;16.70;99.90;;;;;;5044765;28;20098;-58
2022/10/06 10:26:09;;;;;;;10.35;1.60;;;16.70;99.90;;;;;;5045297;28;20126;-59
2022/10/06 10:28:53;;;;;;;5.78;1.40;;;16.90;99.90;;;;;;5043380;28;20057;-59
2022/10/06 10:31:30;;;;;;;6.93;1.67;;;17.10;99.90;;;;;;5024919;28;20086;-58
2022/10/06 10:34:22;;;;;;;6.65;1.35;;;17.10;99.90;;;;;;5025680;28;20077;-58
2022/10/06 10:37:03;;;;;;;7.68;1.10;;;17.40;99.90;;;;;;5032302;28;20056;-57
2022/10/06 10:39:38;;;;;;;5.97;1.30;;;17.10;99.90;;;;;;5046178;28;20381;-59
2022/10/06 10:42:27;;;;;;;5.35;1.10;;;17.00;99.90;;;;;;5045103;28;20041;-58
2022/10/06 10:45:00;;;;;;;4.72;1.30;;;17.00;99.90;;;;;;5045327;28;20053;-58
2022/10/06 10:47:38;;;;;;;6.90;1.30;;;17.20;99.90;;;;;;5027419;28;20045;-58
2022/10/06 10:50:07;;;;;;;6.88;1.40;;;17.40;99.90;;;;;;5043437;28;20052;-58
2022/10/06 10:52:41;;;;;;;8.10;1.50;;;17.40;99.90;;;;;;5044606;28;20123;-59
2022/10/06 10:55:26;;;;;;;;;;;17.70;99.90;;;;;;5044405;28;20056;-59
2022/10/06 10:57:55;;;;;;;7.25;1.75;;;17.80;99.90;;;;;;5044347;28;19929;-58
2022/10/06 11:00:26;;;;;;;4.70;0.90;;;18.10;99.90;;;;;;5044120;28;20118;-58
2022/10/06 11:02:55;;;;;;;3.88;1.00;;;17.80;99.90;;;;;;5044719;28;20458;-58
2022/10/06 11:05:56;;;;;;;7.13;1.33;;;17.70;99.90;;;;;;5038686;28;20108;-58
2022/10/06 11:08:44;;;;;;;7.75;1.45;;;17.80;99.90;;;;;;5038998;28;20107;-58
2022/10/06 11:11:36;;;;;;;8.45;1.35;;;18.20;99.90;;;;;;5043135;28;20141;-58
2022/10/06 11:14:22;;;;;;;7.65;1.48;;;18.10;99.90;;;;;;5027911;28;20048;-58
2022/10/06 11:17:09;;;;;;;8.48;1.60;;;18.20;99.90;;;;;;5044388;28;20056;-58
2022/10/06 11:20:13;;;;;;;5.13;1.25;;;17.90;99.90;;;;;;5043218;28;20064;-58
2022/10/06 11:22:54;;;;;;;8.05;1.52;;;17.70;99.90;;;;;;5030608;28;20048;-58
2022/10/06 11:25:55;;;;;;;5.60;1.20;;;17.50;99.90;;;;;;5043675;28;20492;-58
2022/10/06 11:28:51;;;;;;;5.70;1.23;;;17.60;99.90;;;;;;5011667;28;20063;-58
2022/10/06 11:31:32;;;;;;;10.02;1.77;;;17.50;99.90;;;;;;5042520;28;20057;-58
2022/10/06 11:34:00;;;;;;;5.70;0.90;;;17.80;99.90;;;;;;5044402;28;20056;-58
2022/10/06 11:36:47;;;;;;;7.35;1.38;;;17.70;99.90;;;;;;5043035;28;20132;-58
2022/10/06 11:39:24;;;;;;;7.20;1.10;;;17.80;99.90;;;;;;5043236;28;20073;-58
2022/10/06 11:42:13;;;;;;;5.50;1.17;;;17.80;99.90;;;;;;5044443;28;20047;-58
2022/10/06 11:44:46;;;;;;;6.63;1.48;;;18.00;99.90;;;;;;5043697;28;20127;-58
2022/10/06 11:47:28;;;;;;;5.35;1.02;;;18.10;99.90;;;;;;5043249;28;20535;-58
2022/10/06 11:49:57;;;;;;;5.68;1.33;;;17.70;99.90;;;;;;5043446;28;20594;-58
2022/10/06 11:52:23;;;;;;;6.43;1.13;;;17.70;99.90;;;;;;5043152;28;20048;-58
2022/10/06 11:55:06;;;;;;;7.18;1.30;;;17.40;99.90;;;;;;5042814;28;20037;-58
2022/10/06 11:57:32;;;;;;;5.53;1.13;;;17.50;99.90;;;;;;5043952;28;20081;-59
2022/10/06 12:00:04;;;;;;;6.90;1.10;;;17.60;99.90;;;;;;5025635;28;20060;-58
2022/10/06 12:02:37;;;;;;;5.88;1.13;;;17.50;99.90;;;;;;5025691;28;20041;-58
2022/10/06 12:05:32;;;;;;;6.75;1.20;;;17.80;99.90;;;;;;5039919;28;20037;-58
2022/10/06 12:07:58;;;;;;;4.82;0.90;;;17.60;99.90;;;;;;5035603;28;20484;-58
2022/10/06 12:10:26;;;;;;;4.57;1.05;;;17.50;99.90;;;;;;5043017;28;20123;-58
2022/10/06 12:12:57;;;;;;;5.47;1.02;;;17.20;99.90;;;;;;5043049;28;20403;-59
2022/10/06 12:15:36;;;;;;;6.40;1.25;;;17.50;99.90;;;;;;5025527;28;20057;-59
2022/10/06 12:18:34;;;;;;;5.35;1.05;;;17.50;99.90;;;;;;5042274;28;20061;-64
2022/10/06 12:21:16;;;;;;;8.90;1.20;;;17.70;99.90;;;;;;5035703;28;20049;-63
2022/10/06 12:24:04;;;;;;;6.97;1.30;;;17.80;99.90;;;;;;5042113;28;20044;-61
2022/10/06 12:26:55;;;;;;;4.40;1.00;;;18.00;99.90;;;;;;5043736;28;20497;-64
2022/10/06 12:29:46;;;;;;;5.18;1.00;;;17.90;99.90;;;;;;5043008;28;20815;-65
2022/10/06 12:32:21;;;;;;;6.68;1.10;;;17.70;99.90;;;;;;5042809;28;20048;-71
2022/10/06 12:35:01;;;;;;;9.10;1.00;;;17.70;99.90;;;;;;5036484;28;20049;-70
2022/10/06 12:37:30;;;;;;;5.28;1.42;;;17.60;99.90;;;;;;5041874;28;20136;-66
2022/10/06 12:40:33;;;;;;;3.22;0.80;;;17.50;99.90;;;;;;5008723;28;20071;-66
2022/10/06 12:43:32;;;;;;;4.05;1.00;;;17.50;99.90;;;;;;5005226;28;20065;-66
2022/10/06 12:46:25;;;;;;;3.13;0.80;;;17.40;99.90;;;;;;5011035;28;20056;-66
2022/10/06 12:49:10;;;;;;;5.57;1.30;;;17.60;99.90;;;;;;5046518;28;20048;-66
2022/10/06 12:51:42;;;;;;;4.00;1.02;;;17.50;99.90;;;;;;5045266;28;20045;-61
2022/10/06 12:54:22;;;;;;;5.32;1.50;;;17.60;99.90;;;;;;5035116;28;20052;-62
2022/10/06 12:57:00;;;;;;;7.30;1.20;;;17.50;99.90;;;;;;5026378;28;20443;-61
2022/10/06 12:59:33;;;;;;;5.40;1.50;;;17.60;99.90;;;;;;5026542;28;20046;-61
2022/10/06 13:02:18;;;;;;;5.53;1.05;;;17.40;99.90;;;;;;5026392;28;20052;-59
2022/10/06 13:04:58;;;;;;;4.80;1.20;;;17.50;99.90;;;;;;5025774;28;20479;-62
2022/10/06 13:07:27;;;;;;;2.97;0.70;;;17.70;99.90;;;;;;5017486;28;20080;-62
2022/10/06 13:10:13;;;;;;;3.70;1.27;;;17.40;99.90;;;;;;5026515;28;20049;-60
2022/10/06 13:12:49;;;;;;;7.00;1.17;;;17.40;99.90;;;;;;5012461;28;20065;-65
2022/10/06 13:15:22;;;;;;;5.65;1.20;;;17.30;99.90;;;;;;5025862;28;20447;-63